01:08
Airports
History
Links
Donate
Help keep this website running!
PayPal
Bitcoin
This page is community maintained. The information is intended for PC simulator navigation or reference.
Always use approved charts for navigation.
HI13
Puu Waa Waa Ranch
Puu Waa Waa Ranch (HI13)
Kailua-Kona, Hawaii, United States (96740)
(U)
Lat/Lng:19° 47' 19.05" N / 155° 50' 59.99" W
19.788625 / -155.849997
Elevation:2250'ft / 686mMSL
ID / ICAO:HI13
Runways:1
Longest:02-20
Asphalt 901m / 2,957ft
Nearby Weather00:53 GMT 2017-11-18
Nearby weather at PHKO, Kona Intl At Keahole located 13.2 nautical miles from HI13
Altimeter: 29.84
Visibility: 10.0 statute miles
Wind: 11 knots (from 210°)
Temp: 28°c / 82°f
Humidity: 51.3%

METAR: PHKO 180053Z 21011KT 10SM FEW065 28/17 A2984 RMK AO2 SLP104 T02780167

(Powered by phpweather)
Nearby VORs <50NM
Nearby NDBs
Runway 02 / 20
Dimensions:901.2 x 12.2m 2957' x 40'ft
Surface:Asphalt
Runway 02 [A]Runway 20 [B]
Heading:031°TH 211°TH
Lat:
Lng:
19° 47' 6.57"N
155° 51' 7.96"W
19° 47' 31.53"N
155° 50' 52.02"W
User Notes and Comments
19° 47' 19.05" N / 155° 50' 59.99" W
Distance To
Airport ID:
Nearby Airports
(C) Kona Intl At Keahole 13.2 NM
PHKO ( WX ) WSW 254°
(U) Waimea-kohala 18.9 NM
PHMU NE 38°
(R) Bradshaw Army Airfield 19.4 NM
PHSF ( WX ) E 95°
(R) Honokaa Airstrip 30.4 NM
HI05 NE 47°
(U) Upolu 32.9 NM
PHUP N 358°
(R) Upper Paauilo Airstrip 34.3 NM
HI27 ENE 61°
(R) Upper Paauau 44.7 NM
HI29 SSE 150°
VFR Chart
Flight Planning at SkyVector.com